Ayersville, North Carolina
Current Conditions -  °F | °C
As of 11:55 PM on Sunday 23 Nov 2014 (Local Time) from KSIF Reporting Station
Haze Haze  
Wind Chill: 51°   Ceiling: 1400
Heat Index: 51°   Visibility: 5mi
Dew Point: 51°   Wind: 0mph
Humidity: 100%   Direction: NA
Pressure: 29.7"   Gusts: NA
Location:  36.4479°N, 79.9473°W
Report Text: KSIF 240455Z AUTO 00000KT 5SM BR BKN014 BKN019 OVC024 11/11 A2970 RMK AO2 T01080108
Loading
Personal Weather Stations






























Interactive Weather Map New forecast layout! Learn more

10-Day Weather Forecast

Advertisements
Track Severe Weather on mobile